Time;durP1;ratioP1;P1;durP2;ratioP2;P2;SDS_P1;SDS_P2;PMS_P1;PMS_P2;Temp;Humidity;BMP_temperature;BMP_pressure;BME280_temperature;BME280_humidity;BME280_pressure;Samples;Min_cycle;Max_cycle;Signal;HPM_P1;HPM_P2
2022/07/15 00:00:13;;;;;;;7.03;1.80;;;18.80;91.20;;;;;;5034097;22;1334007;-77
2022/07/15 00:02:39;;;;;;;7.00;1.52;;;18.80;91.10;;;;;;5070503;28;20024;-78
2022/07/15 00:05:06;;;;;;;6.93;1.98;;;18.80;91.20;;;;;;5070624;28;20024;-78
2022/07/15 00:07:33;;;;;;;6.93;1.80;;;18.80;91.10;;;;;;5070378;28;20031;-78
2022/07/15 00:10:14;;;;;;;8.85;1.77;;;18.90;91.20;;;;;;5070058;28;20036;-78
2022/07/15 00:12:50;;;;;;;6.20;1.75;;;18.80;91.00;;;;;;5070616;28;20029;-78
2022/07/15 00:15:17;;;;;;;7.15;1.77;;;18.80;91.10;;;;;;5070469;28;20021;-80
2022/07/15 00:17:43;;;;;;;6.22;1.98;;;18.80;91.00;;;;;;5071064;28;20046;-79
2022/07/15 00:20:10;;;;;;;10.32;1.83;;;18.70;91.10;;;;;;5053096;28;20481;-79
2022/07/15 00:22:36;;;;;;;5.43;1.45;;;18.70;91.00;;;;;;5053232;28;20032;-79
2022/07/15 00:25:02;;;;;;;6.95;2.05;;;18.70;91.10;;;;;;5053148;28;20036;-79
2022/07/15 00:27:28;;;;;;;5.72;1.67;;;18.70;91.10;;;;;;5070952;28;20030;-79
2022/07/15 00:29:54;;;;;;;5.00;1.60;;;18.70;91.10;;;;;;5052898;28;20392;-79
2022/07/15 00:32:20;;;;;;;5.78;1.95;;;18.60;91.10;;;;;;5071094;28;20021;-79
2022/07/15 00:34:45;;;;;;;5.13;1.67;;;18.70;91.00;;;;;;5052943;28;20032;-79
2022/07/15 00:37:11;;;;;;;5.60;1.50;;;18.60;91.00;;;;;;5071267;28;20108;-79
2022/07/15 00:39:37;;;;;;;6.38;1.40;;;18.60;91.10;;;;;;5070614;28;20029;-79
2022/07/15 00:42:04;;;;;;;7.25;2.00;;;18.60;91.10;;;;;;5070952;28;20043;-79
2022/07/15 00:44:30;;;;;;;5.80;1.45;;;18.60;91.10;;;;;;5053054;28;20542;-79
2022/07/15 00:46:56;;;;;;;5.65;1.85;;;18.60;91.10;;;;;;5052694;28;20040;-79
2022/07/15 00:49:22;;;;;;;5.30;1.63;;;18.60;91.10;;;;;;5070403;28;20054;-79
2022/07/15 00:51:51;;;;;;;4.28;1.58;;;18.60;91.20;;;;;;5070596;28;20028;-79
2022/07/15 00:54:22;;;;;;;;;;;18.60;91.20;;;;;;5053124;28;20044;-79
2022/07/15 00:56:50;;;;;;;7.30;1.80;;;18.50;91.60;;;;;;5052620;28;19916;-79
2022/07/15 00:59:19;;;;;;;6.88;1.80;;;18.50;91.40;;;;;;5070249;28;20670;-79
2022/07/15 01:01:45;;;;;;;5.72;1.60;;;18.50;91.40;;;;;;5070679;28;20120;-79
2022/07/15 01:04:12;;;;;;;8.38;1.55;;;18.50;91.50;;;;;;5070517;28;20040;-79
2022/07/15 01:06:39;;;;;;;6.70;1.95;;;18.50;91.40;;;;;;5052617;28;20029;-79
2022/07/15 01:09:06;;;;;;;6.28;1.85;;;18.50;91.40;;;;;;5051807;28;20032;-79
2022/07/15 01:11:32;;;;;;;5.30;1.58;;;18.50;91.50;;;;;;5036078;28;20028;-79
2022/07/15 01:14:02;;;;;;;6.03;1.58;;;18.40;91.50;;;;;;5052598;28;20154;-79
2022/07/15 01:16:28;;;;;;;7.35;1.98;;;18.40;91.40;;;;;;5052342;28;20028;-78
2022/07/15 01:18:54;;;;;;;9.90;1.77;;;18.40;91.70;;;;;;5052318;28;20035;-78
2022/07/15 01:21:22;;;;;;;6.32;1.98;;;18.40;91.50;;;;;;5052581;28;20032;-78
2022/07/15 01:23:51;;;;;;;7.20;2.10;;;18.40;91.60;;;;;;5052511;28;20098;-78
2022/07/15 01:26:34;;;;;;;7.07;1.73;;;18.40;91.60;;;;;;5038085;28;20025;-78
2022/07/15 01:29:01;;;;;;;7.15;1.50;;;18.40;91.70;;;;;;5051870;28;20123;-78
2022/07/15 01:31:27;;;;;;;6.47;1.77;;;18.40;91.70;;;;;;5070384;28;20104;-78
2022/07/15 01:33:54;;;;;;;5.53;1.50;;;18.40;91.70;;;;;;5036050;28;20058;-80
2022/07/15 01:36:20;;;;;;;5.57;1.95;;;18.40;91.60;;;;;;5070228;28;20025;-79
2022/07/15 01:38:52;;;;;;;8.07;2.03;;;18.40;91.70;;;;;;5052138;28;20111;-79
2022/07/15 01:41:19;;;;;;;7.97;2.03;;;18.40;91.60;;;;;;5052382;28;20029;-79
2022/07/15 01:43:45;;;;;;;7.72;1.80;;;18.40;91.60;;;;;;5070342;28;20039;-79
2022/07/15 01:46:11;;;;;;;7.85;1.60;;;18.30;91.70;;;;;;5053175;28;20074;-79
2022/07/15 01:51:42;;;;;;;7.78;2.22;;;18.30;91.80;;;;;;5074149;28;20073;-79
2022/07/15 01:54:08;;;;;;;8.23;1.88;;;18.20;92.00;;;;;;5039627;28;20028;-79
2022/07/15 01:56:36;;;;;;;8.85;2.00;;;18.30;92.10;;;;;;5056062;28;20033;-78
2022/07/15 01:59:02;;;;;;;8.15;1.60;;;18.20;92.00;;;;;;5039505;28;20560;-78
2022/07/15 02:01:29;;;;;;;7.25;1.95;;;18.10;92.20;;;;;;5055974;28;20139;-78
2022/07/15 02:03:56;;;;;;;6.45;1.80;;;18.10;92.30;;;;;;5056302;28;20032;-78
2022/07/15 02:06:22;;;;;;;8.60;2.58;;;18.00;92.50;;;;;;5073838;28;20035;-78
2022/07/15 02:08:48;;;;;;;7.22;2.10;;;18.00;92.50;;;;;;5039072;28;20029;-79
2022/07/15 02:11:17;;;;;;;8.90;2.08;;;18.00;92.60;;;;;;5055903;28;20029;-79
2022/07/15 02:13:47;;;;;;;7.30;1.85;;;18.00;92.70;;;;;;5073645;28;20024;-78
2022/07/15 02:16:15;;;;;;;7.97;2.28;;;18.00;92.70;;;;;;5055860;28;20115;-79
2022/07/15 02:18:40;;;;;;;5.28;1.95;;;18.00;92.80;;;;;;5055839;28;20127;-80
2022/07/15 02:21:07;;;;;;;8.45;1.85;;;18.00;92.80;;;;;;5055649;28;20102;-83
2022/07/15 02:23:33;;;;;;;5.95;1.80;;;18.00;92.90;;;;;;5055689;28;20036;-78
2022/07/15 02:25:59;;;;;;;8.23;2.10;;;18.00;92.80;;;;;;5055279;28;20411;-79
2022/07/15 02:28:26;;;;;;;6.53;1.98;;;18.00;92.80;;;;;;5055634;28;20047;-79
2022/07/15 02:30:53;;;;;;;6.18;1.70;;;17.90;92.80;;;;;;5055205;28;20067;-79
2022/07/15 02:33:19;;;;;;;6.10;1.90;;;18.00;92.90;;;;;;5055576;28;20052;-78
2022/07/15 02:35:44;;;;;;;8.40;2.05;;;17.90;92.90;;;;;;5073273;28;20021;-78
2022/07/15 02:38:11;;;;;;;9.90;2.50;;;17.90;92.90;;;;;;5055400;28;20032;-78
2022/07/15 02:40:38;;;;;;;10.70;1.83;;;17.90;92.90;;;;;;5073509;28;20032;-79
2022/07/15 02:43:03;;;;;;;10.90;2.50;;;17.90;92.90;;;;;;5055636;28;20039;-78
2022/07/15 02:45:34;;;;;;;6.95;2.08;;;17.90;92.90;;;;;;5055459;28;20492;-79
2022/07/15 02:48:04;;;;;;;8.90;2.22;;;17.90;93.00;;;;;;5055437;28;20077;-79
2022/07/15 02:50:34;;;;;;;6.47;2.00;;;17.90;93.00;;;;;;5038988;28;20052;-79
2022/07/15 02:53:02;;;;;;;8.00;1.88;;;17.90;93.00;;;;;;5073064;28;20024;-79
2022/07/15 02:55:28;;;;;;;10.07;2.03;;;17.80;93.00;;;;;;5055230;28;20021;-79
2022/07/15 02:57:53;;;;;;;7.38;1.58;;;17.80;93.10;;;;;;5049185;28;20378;-79
2022/07/15 03:00:20;;;;;;;8.40;1.58;;;17.80;93.10;;;;;;5034690;28;20086;-79
2022/07/15 03:02:50;;;;;;;7.55;1.95;;;17.70;93.20;;;;;;5035118;28;20029;-79
2022/07/15 03:05:17;;;;;;;10.20;2.35;;;17.80;93.20;;;;;;5018653;28;20550;-79
2022/07/15 03:07:45;;;;;;;8.68;1.80;;;17.80;93.20;;;;;;5035059;28;20458;-79
2022/07/15 03:10:16;;;;;;;7.25;1.90;;;17.80;93.30;;;;;;5034779;28;20544;-79
2022/07/15 03:12:42;;;;;;;6.07;1.73;;;17.80;93.20;;;;;;5035091;28;20025;-79
2022/07/15 03:15:10;;;;;;;6.35;2.13;;;17.70;93.20;;;;;;5034932;28;20021;-80
2022/07/15 03:17:35;;;;;;;7.30;1.85;;;17.70;93.30;;;;;;5034668;28;20029;-80
2022/07/15 03:20:04;;;;;;;9.10;2.00;;;17.70;93.30;;;;;;5034296;28;20097;-88
2022/07/15 03:22:33;;;;;;;10.15;1.98;;;17.60;93.30;;;;;;5034541;28;20029;-81
2022/07/15 03:24:59;;;;;;;5.95;1.70;;;17.50;93.30;;;;;;5034559;28;20489;-81
2022/07/15 03:27:26;;;;;;;8.50;1.92;;;17.50;93.40;;;;;;5034305;28;20119;-78
2022/07/15 03:29:52;;;;;;;7.10;1.83;;;17.50;93.50;;;;;;5054704;28;20485;-82
2022/07/15 03:32:20;;;;;;;8.43;1.85;;;17.40;93.60;;;;;;5035064;28;20385;-84
2022/07/15 03:34:48;;;;;;;8.10;2.00;;;17.40;93.60;;;;;;5034512;28;20028;-77
2022/07/15 03:37:17;;;;;;;7.88;1.90;;;17.40;93.60;;;;;;5034068;28;20397;-77
2022/07/15 03:39:44;;;;;;;7.20;1.75;;;17.40;93.70;;;;;;5033871;28;20033;-80
2022/07/15 03:42:09;;;;;;;7.80;1.98;;;17.40;93.60;;;;;;5034245;28;20046;-81
2022/07/15 03:44:38;;;;;;;8.98;1.85;;;17.40;93.60;;;;;;5034100;28;20024;-79
2022/07/15 03:47:04;;;;;;;7.13;2.30;;;17.50;93.90;;;;;;5033833;28;20043;-82
2022/07/15 03:49:30;;;;;;;6.93;2.15;;;17.40;93.70;;;;;;5033701;28;20115;-81
2022/07/15 03:51:58;;;;;;;11.02;2.20;;;17.20;94.50;;;;;;5017841;28;20029;-79
2022/07/15 03:54:27;;;;;;;9.77;2.42;;;17.10;94.30;;;;;;5034199;28;20053;-83
2022/07/15 03:56:56;;;;;;;6.72;1.85;;;17.10;94.50;;;;;;5033774;28;20060;-87
2022/07/15 03:59:23;;;;;;;6.20;1.75;;;17.10;94.50;;;;;;5051362;28;20052;-80
2022/07/15 04:01:49;;;;;;;7.78;1.63;;;17.10;94.70;;;;;;5033748;28;20037;-85
2022/07/15 04:04:16;;;;;;;9.48;1.85;;;17.10;94.70;;;;;;5061421;28;20025;-87
2022/07/15 04:06:42;;;;;;;5.68;1.67;;;17.20;94.60;;;;;;5054856;28;20032;-78
2022/07/15 04:09:09;;;;;;;7.18;2.00;;;17.20;94.50;;;;;;5033124;28;20135;-82
2022/07/15 04:11:35;;;;;;;9.25;2.85;;;17.20;94.60;;;;;;5033438;28;20025;-78
2022/07/15 04:14:01;;;;;;;6.70;2.20;;;17.30;94.50;;;;;;5017047;28;20485;-78
2022/07/15 04:16:28;;;;;;;6.75;2.05;;;17.30;94.60;;;;;;5051310;28;20032;-78
2022/07/15 04:18:55;;;;;;;9.60;2.10;;;17.40;94.40;;;;;;5033134;28;20079;-78
2022/07/15 04:21:21;;;;;;;8.95;2.75;;;17.40;94.40;;;;;;5033302;28;20025;-82
2022/07/15 04:23:47;;;;;;;7.82;2.10;;;17.40;94.20;;;;;;5033686;28;20028;-79
2022/07/15 04:26:13;;;;;;;7.22;1.98;;;17.30;94.20;;;;;;5049706;28;20028;-79
2022/07/15 04:28:40;;;;;;;7.93;2.25;;;17.30;94.20;;;;;;5031702;28;20029;-79
2022/07/15 04:31:06;;;;;;;6.88;2.17;;;17.40;94.20;;;;;;5031752;28;20106;-79
2022/07/15 04:33:43;;;;;;;6.60;1.92;;;17.40;94.10;;;;;;5031997;28;20087;-79
2022/07/15 04:36:08;;;;;;;8.00;2.17;;;17.40;94.20;;;;;;5031595;28;20021;-79
2022/07/15 04:38:34;;;;;;;8.82;2.40;;;17.40;94.20;;;;;;5031515;28;20482;-80
2022/07/15 04:41:00;;;;;;;9.27;2.75;;;17.50;94.30;;;;;;5050460;28;20024;-80
2022/07/15 04:43:26;;;;;;;7.72;2.60;;;17.50;94.50;;;;;;5033123;28;20028;-79
2022/07/15 04:45:52;;;;;;;9.90;3.53;;;17.50;94.20;;;;;;5032850;28;20433;-79
2022/07/15 04:51:05;;;;;;;9.55;2.53;;;17.50;94.00;;;;;;5032630;28;20459;-79
2022/07/15 04:53:31;;;;;;;8.77;2.53;;;17.50;94.10;;;;;;5032987;28;20032;-79
2022/07/15 04:55:57;;;;;;;8.75;2.53;;;17.60;94.20;;;;;;5050623;28;20033;-79
2022/07/15 04:58:23;;;;;;;7.53;2.08;;;17.60;94.10;;;;;;5050850;28;20033;-81
2022/07/15 05:00:49;;;;;;;9.48;2.40;;;17.60;94.10;;;;;;5032539;28;20044;-79
2022/07/15 05:03:19;;;;;;;12.35;3.17;;;17.70;94.10;;;;;;5032818;28;20041;-79
2022/07/15 05:05:45;;;;;;;10.70;4.55;;;17.70;94.20;;;;;;5032519;28;20052;-79
2022/07/15 05:08:16;;;;;;;11.77;3.97;;;17.70;94.40;;;;;;5032167;28;20124;-79
2022/07/15 05:10:46;;;;;;;14.50;4.63;;;17.70;94.60;;;;;;5032570;28;20451;-79
2022/07/15 05:13:12;;;;;;;13.85;3.75;;;17.70;94.60;;;;;;5032737;28;20029;-79
2022/07/15 05:15:38;;;;;;;9.23;2.95;;;17.70;94.50;;;;;;5032531;28;20025;-79
2022/07/15 05:18:15;;;;;;;10.50;3.00;;;17.70;94.60;;;;;;5032689;28;20025;-79
2022/07/15 05:20:41;;;;;;;14.45;3.50;;;17.70;94.60;;;;;;5016293;28;20333;-79
2022/07/15 05:23:07;;;;;;;9.00;2.78;;;17.70;94.60;;;;;;5054914;28;20037;-79
2022/07/15 05:25:37;;;;;;;12.27;3.50;;;17.70;94.50;;;;;;5036552;28;20031;-78
2022/07/15 05:28:03;;;;;;;9.40;2.78;;;17.80;94.40;;;;;;5036686;28;20288;-79
2022/07/15 05:30:29;;;;;;;9.10;2.10;;;17.80;94.20;;;;;;5036217;28;20032;-79
2022/07/15 05:33:00;;;;;;;13.18;2.58;;;17.80;94.30;;;;;;5036705;28;20548;-80
2022/07/15 05:35:25;;;;;;;6.68;1.85;;;17.90;94.20;;;;;;5036807;28;20527;-80
2022/07/15 05:37:52;;;;;;;7.70;1.77;;;17.90;94.10;;;;;;5036624;28;20147;-80
2022/07/15 05:40:23;;;;;;;6.50;1.98;;;17.90;94.00;;;;;;5036329;28;20124;-80
2022/07/15 05:42:53;;;;;;;7.95;1.77;;;18.00;93.90;;;;;;5036613;28;20068;-80
2022/07/15 05:45:19;;;;;;;8.05;1.80;;;18.00;93.80;;;;;;5036346;28;20036;-80
2022/07/15 05:47:52;;;;;;;12.18;2.45;;;18.00;93.80;;;;;;5036130;28;20128;-80
2022/07/15 05:50:21;;;;;;;8.43;1.67;;;18.00;93.70;;;;;;5035826;28;20051;-80
2022/07/15 05:52:48;;;;;;;7.10;1.58;;;18.00;93.80;;;;;;5036182;28;20032;-80
2022/07/15 05:55:14;;;;;;;8.90;1.60;;;18.00;93.70;;;;;;5036190;28;20551;-80
2022/07/15 05:57:41;;;;;;;9.60;3.08;;;18.00;93.50;;;;;;5035940;28;20021;-80
2022/07/15 06:00:08;;;;;;;14.20;3.78;;;18.00;93.10;;;;;;5035684;28;20091;-80
2022/07/15 06:02:39;;;;;;;9.23;2.80;;;18.00;93.10;;;;;;5054029;28;20041;-80
2022/07/15 06:05:09;;;;;;;10.77;2.53;;;17.90;93.30;;;;;;5036011;28;20412;-80
2022/07/15 06:07:38;;;;;;;9.40;2.92;;;18.00;93.20;;;;;;5035994;28;20028;-80
2022/07/15 06:10:05;;;;;;;8.70;2.63;;;18.00;93.00;;;;;;5035405;28;20520;-80
2022/07/15 06:12:32;;;;;;;11.75;2.70;;;18.00;92.80;;;;;;5036017;28;20382;-80
2022/07/15 06:14:58;;;;;;;15.98;3.40;;;18.00;92.90;;;;;;5035904;28;20175;-80
2022/07/15 06:17:25;;;;;;;9.23;2.83;;;18.00;92.80;;;;;;5035610;28;20436;-80
2022/07/15 06:19:53;;;;;;;10.95;2.63;;;18.00;92.90;;;;;;5035382;28;20388;-80
2022/07/15 06:22:19;;;;;;;11.35;2.58;;;18.00;93.00;;;;;;5035692;28;20043;-80
2022/07/15 06:24:45;;;;;;;11.55;2.92;;;18.10;93.10;;;;;;5035560;28;20033;-80
2022/07/15 06:27:10;;;;;;;8.32;2.38;;;18.10;93.00;;;;;;5035407;28;20400;-79
2022/07/15 06:29:36;;;;;;;11.13;2.90;;;18.20;93.00;;;;;;5053123;28;20036;-79
2022/07/15 06:32:02;;;;;;;9.52;2.50;;;18.30;92.70;;;;;;5053353;28;20473;-80
2022/07/15 06:34:28;;;;;;;8.20;2.33;;;18.40;92.70;;;;;;5035580;28;20033;-79
2022/07/15 06:36:54;;;;;;;10.57;2.97;;;18.40;92.60;;;;;;5053028;28;20028;-79
2022/07/15 06:39:20;;;;;;;17.30;7.65;;;18.50;92.40;;;;;;5034998;28;20081;-79
2022/07/15 06:41:46;;;;;;;14.55;7.43;;;18.50;92.20;;;;;;5035284;28;20037;-79
2022/07/15 06:44:14;;;;;;;14.43;7.05;;;18.60;92.30;;;;;;5035861;28;20037;-80
2022/07/15 06:46:52;;;;;;;16.08;5.03;;;18.50;92.20;;;;;;5035001;28;20095;-80
2022/07/15 06:49:17;;;;;;;11.00;3.83;;;18.40;92.00;;;;;;5035019;28;20033;-80
2022/07/15 06:51:43;;;;;;;14.60;5.03;;;18.40;91.40;;;;;;5035153;28;20087;-80
2022/07/15 06:54:09;;;;;;;14.05;5.68;;;18.40;91.30;;;;;;5034854;28;20029;-80
2022/07/15 06:56:38;;;;;;;17.50;5.20;;;18.40;91.80;;;;;;5018701;28;20025;-80
2022/07/15 06:59:04;;;;;;;14.18;4.90;;;18.40;91.90;;;;;;5034722;28;20029;-80
2022/07/15 07:01:30;;;;;;;11.10;4.00;;;18.40;91.90;;;;;;5034965;28;20031;-80
2022/07/15 07:03:57;;;;;;;12.32;4.10;;;18.40;91.70;;;;;;5035041;28;20036;-80
2022/07/15 07:06:23;;;;;;;11.50;3.70;;;18.40;91.50;;;;;;5052645;28;20021;-80
2022/07/15 07:08:49;;;;;;;7.85;2.70;;;18.30;91.50;;;;;;5034606;28;20115;-80
2022/07/15 07:11:17;;;;;;;10.82;3.30;;;18.40;91.40;;;;;;5052571;28;20033;-80
2022/07/15 07:13:42;;;;;;;11.88;3.08;;;18.40;90.60;;;;;;5052705;28;20135;-80
2022/07/15 07:16:08;;;;;;;14.15;3.25;;;18.40;90.50;;;;;;5052197;28;20107;-81
2022/07/15 07:18:35;;;;;;;9.23;2.88;;;18.40;90.40;;;;;;5052445;28;20025;-80
2022/07/15 07:21:01;;;;;;;9.75;2.50;;;18.30;90.50;;;;;;5034475;28;20079;-80
2022/07/15 07:23:27;;;;;;;10.30;2.30;;;18.30;90.60;;;;;;5052420;28;20045;-80
2022/07/15 07:25:54;;;;;;;16.35;2.55;;;18.30;90.50;;;;;;5052379;28;20021;-80
2022/07/15 07:28:19;;;;;;;11.32;2.60;;;18.30;90.60;;;;;;5034549;28;20493;-80
2022/07/15 07:30:46;;;;;;;9.55;3.28;;;18.30;90.40;;;;;;5051947;28;20063;-80
2022/07/15 07:33:12;;;;;;;14.32;3.58;;;18.20;90.40;;;;;;5052516;28;20028;-80
2022/07/15 07:35:39;;;;;;;16.77;4.88;;;18.20;90.70;;;;;;5034137;28;20366;-80
2022/07/15 07:38:05;;;;;;;8.75;3.33;;;18.20;90.70;;;;;;5052293;28;20017;-80
2022/07/15 07:40:30;;;;;;;11.32;2.60;;;18.20;90.60;;;;;;5051919;28;20025;-80
2022/07/15 07:42:56;;;;;;;9.25;2.70;;;18.20;90.50;;;;;;5051889;28;20086;-80
2022/07/15 07:45:23;;;;;;;10.23;2.53;;;18.20;90.60;;;;;;5051485;28;20043;-80
2022/07/15 07:47:49;;;;;;;8.10;2.22;;;18.10;90.60;;;;;;5051925;28;20040;-80
2022/07/15 07:50:16;;;;;;;8.73;2.47;;;18.10;90.80;;;;;;5033972;28;20029;-80
2022/07/15 07:52:42;;;;;;;10.65;2.30;;;18.20;90.90;;;;;;5051964;28;20511;-80
2022/07/15 07:55:08;;;;;;;7.72;2.00;;;18.20;91.30;;;;;;5051801;28;20057;-80
2022/07/15 07:57:35;;;;;;;8.18;1.90;;;18.20;91.00;;;;;;5051632;28;20021;-80
2022/07/15 08:00:02;;;;;;;7.00;2.28;;;18.10;90.90;;;;;;5051251;28;20033;-80
2022/07/15 08:02:37;;;;;;;10.88;2.70;;;18.20;90.90;;;;;;5051716;28;20040;-80
2022/07/15 08:05:04;;;;;;;6.95;1.85;;;18.30;90.70;;;;;;5051591;28;20167;-80
2022/07/15 08:07:30;;;;;;;8.90;1.90;;;18.30;90.30;;;;;;5017044;28;20476;-80
2022/07/15 08:09:55;;;;;;;8.10;1.88;;;18.40;90.20;;;;;;5051313;28;20126;-80
2022/07/15 08:12:21;;;;;;;6.57;1.77;;;18.50;90.00;;;;;;5051495;28;20063;-81
2022/07/15 08:14:49;;;;;;;8.45;2.00;;;18.60;90.10;;;;;;5051426;28;20039;-81
2022/07/15 08:17:16;;;;;;;4.20;1.60;;;18.70;89.40;;;;;;5051147;28;20111;-81
2022/07/15 08:19:41;;;;;;;5.20;1.48;;;18.80;88.80;;;;;;5051299;28;20056;-81
2022/07/15 08:22:07;;;;;;;8.15;1.85;;;18.80;88.50;;;;;;5051295;28;20065;-81
2022/07/15 08:24:33;;;;;;;5.20;1.42;;;18.90;88.00;;;;;;5051330;28;20033;-80
2022/07/15 08:26:58;;;;;;;4.93;1.40;;;19.00;84.40;;;;;;5051099;28;20033;-80
2022/07/15 08:29:24;;;;;;;5.00;1.50;;;19.00;82.60;;;;;;5050882;28;20110;-81
2022/07/15 08:31:50;;;;;;;4.80;1.70;;;18.90;83.20;;;;;;5051053;28;20025;-80
2022/07/15 08:34:15;;;;;;;7.15;1.70;;;18.90;83.90;;;;;;5051596;28;20108;-80
2022/07/15 08:36:41;;;;;;;6.13;1.42;;;18.90;84.50;;;;;;5051023;28;20546;-81
2022/07/15 08:39:07;;;;;;;8.38;1.40;;;19.00;85.00;;;;;;5050887;28;20036;-81
2022/07/15 08:41:36;;;;;;;3.70;1.42;;;19.00;84.90;;;;;;5051116;28;20417;-80
2022/07/15 08:44:03;;;;;;;5.63;1.00;;;19.00;85.30;;;;;;5033038;28;20057;-80
2022/07/15 08:46:29;;;;;;;4.13;1.13;;;19.10;85.20;;;;;;5050718;28;20389;-80
2022/07/15 08:49:05;;;;;;;8.38;1.90;;;19.20;84.00;;;;;;5050812;28;20078;-80
2022/07/15 08:51:32;;;;;;;5.47;1.50;;;19.20;82.90;;;;;;5032897;28;20025;-81
2022/07/15 08:53:58;;;;;;;5.22;1.35;;;19.30;82.80;;;;;;5032727;28;20025;-81
2022/07/15 08:56:24;;;;;;;5.85;1.25;;;19.30;83.10;;;;;;5015913;28;20535;-80
2022/07/15 08:58:50;;;;;;;4.60;1.35;;;19.30;83.50;;;;;;5050467;28;20480;-81
2022/07/15 09:01:15;;;;;;;4.82;1.10;;;19.30;83.40;;;;;;5050221;28;20127;-81
2022/07/15 09:03:41;;;;;;;3.83;1.33;;;19.40;84.00;;;;;;5050782;28;20029;-81
2022/07/15 09:06:07;;;;;;;8.20;1.48;;;19.40;83.70;;;;;;5050585;28;20382;-80
2022/07/15 09:08:34;;;;;;;6.65;1.48;;;19.40;83.60;;;;;;5050557;28;20511;-80
2022/07/15 09:11:01;;;;;;;4.75;1.30;;;19.40;83.20;;;;;;5032716;28;20040;-81
2022/07/15 09:13:40;;;;;;;5.90;1.38;;;19.40;82.80;;;;;;5050561;28;20032;-81
2022/07/15 09:16:19;;;;;;;3.80;1.15;;;19.40;82.80;;;;;;5032850;28;20025;-81
2022/07/15 09:18:49;;;;;;;3.90;1.02;;;19.40;81.60;;;;;;5050445;28;20032;-80
2022/07/15 09:21:26;;;;;;;6.88;1.27;;;19.40;81.30;;;;;;5050371;28;20047;-81
2022/07/15 09:23:55;;;;;;;2.58;1.10;;;19.40;81.80;;;;;;5050645;28;20059;-81
2022/07/15 09:26:24;;;;;;;5.18;1.42;;;19.40;82.30;;;;;;5050817;28;20029;-81
2022/07/15 09:28:50;;;;;;;;;;;19.50;82.70;;;;;;5050990;28;20072;-81
2022/07/15 09:34:23;;;;;;;4.78;1.23;;;19.70;82.10;;;;;;5050371;28;20083;-80
2022/07/15 09:36:54;;;;;;;5.70;1.15;;;19.70;82.30;;;;;;5050441;28;20039;-80
2022/07/15 09:39:22;;;;;;;3.40;0.98;;;19.70;82.50;;;;;;5050187;28;20049;-81
2022/07/15 09:41:49;;;;;;;4.93;1.13;;;19.70;82.50;;;;;;5050241;28;20044;-80
2022/07/15 09:44:25;;;;;;;7.15;1.30;;;19.70;82.70;;;;;;5050253;28;20500;-80
2022/07/15 09:46:51;;;;;;;6.15;1.20;;;19.70;82.40;;;;;;5050159;28;20025;-81
2022/07/15 09:49:23;;;;;;;5.53;1.17;;;19.70;82.20;;;;;;5049832;28;20519;-80
2022/07/15 09:51:57;;;;;;;5.60;1.27;;;19.60;81.80;;;;;;5050166;28;20398;-80
2022/07/15 09:54:25;;;;;;;8.98;1.20;;;19.70;81.10;;;;;;5050043;28;20032;-80
2022/07/15 09:56:52;;;;;;;3.20;0.70;;;19.70;79.50;;;;;;5050034;28;20095;-80
2022/07/15 09:59:18;;;;;;;5.72;0.98;;;19.60;79.10;;;;;;5049693;28;20028;-80
2022/07/15 10:01:47;;;;;;;5.28;1.13;;;19.50;80.20;;;;;;5050003;28;20037;-80
2022/07/15 10:04:16;;;;;;;5.22;1.55;;;19.50;81.60;;;;;;5050016;28;20496;-80
2022/07/15 10:06:43;;;;;;;3.75;1.20;;;19.50;81.60;;;;;;5032372;28;20135;-80
2022/07/15 10:09:11;;;;;;;4.90;1.40;;;19.50;81.80;;;;;;5053594;28;20032;-80
2022/07/15 10:11:44;;;;;;;6.53;1.40;;;19.50;82.10;;;;;;5053689;28;20044;-80
2022/07/15 10:14:15;;;;;;;4.10;1.08;;;19.60;81.50;;;;;;5053778;28;20032;-80
2022/07/15 10:17:18;;;;;;;4.68;0.93;;;19.60;81.80;;;;;;5053590;28;20552;-80
2022/07/15 10:19:49;;;;;;;5.40;1.10;;;19.70;81.00;;;;;;5053264;28;20401;-80
2022/07/15 10:22:40;;;;;;;7.45;1.50;;;19.80;80.20;;;;;;5053707;28;20033;-80
2022/07/15 10:25:53;;;;;;;7.07;1.52;;;19.80;79.60;;;;;;5053633;28;20033;-80
2022/07/15 10:28:24;;;;;;;3.60;1.13;;;19.90;79.30;;;;;;4952769;29;20039;-80
2022/07/15 10:31:13;;;;;;;3.45;1.13;;;19.90;78.50;;;;;;4952509;29;20134;-80
2022/07/15 10:33:38;;;;;;;5.30;1.25;;;20.00;77.20;;;;;;5024787;28;20677;-80
2022/07/15 10:36:05;;;;;;;7.35;1.38;;;20.10;77.10;;;;;;5053019;28;20025;-80
2022/07/15 10:38:37;;;;;;;5.32;1.58;;;20.20;77.20;;;;;;5052868;28;20067;-80
2022/07/15 10:41:02;;;;;;;6.55;1.52;;;20.20;77.20;;;;;;5052969;28;20040;-80
2022/07/15 10:43:54;;;;;;;4.10;0.90;;;20.20;77.40;;;;;;5018808;28;20037;-80
2022/07/15 10:46:28;;;;;;;5.13;1.02;;;20.20;78.00;;;;;;5053031;28;20120;-79
2022/07/15 10:49:00;;;;;;;4.95;0.90;;;20.20;78.80;;;;;;5053185;28;20039;-80
2022/07/15 10:51:35;;;;;;;3.80;1.00;;;20.20;79.00;;;;;;5053043;28;20091;-80
2022/07/15 10:54:05;;;;;;;3.47;0.80;;;20.20;77.90;;;;;;5035157;28;20029;-80
2022/07/15 10:56:45;;;;;;;4.47;1.17;;;20.20;76.20;;;;;;5052954;28;20047;-80
2022/07/15 10:59:24;;;;;;;6.97;1.30;;;20.30;75.80;;;;;;5034957;28;20036;-80
2022/07/15 11:02:11;;;;;;;3.70;1.00;;;20.30;75.80;;;;;;5053034;28;20083;-80
2022/07/15 11:04:37;;;;;;;2.35;0.90;;;20.40;76.00;;;;;;5052798;28;20556;-80
2022/07/15 11:07:03;;;;;;;7.90;2.40;;;20.40;76.70;;;;;;5052579;28;20060;-80
2022/07/15 11:09:46;;;;;;;3.17;0.90;;;20.40;77.10;;;;;;5052407;28;20060;-80
2022/07/15 11:12:12;;;;;;;7.75;2.30;;;20.30;76.80;;;;;;5052872;28;20383;-80
2022/07/15 11:14:52;;;;;;;7.15;2.80;;;20.30;73.80;;;;;;5035018;28;20442;-80
2022/07/15 11:17:21;;;;;;;2.55;0.80;;;20.30;70.30;;;;;;5034990;28;20311;-80
2022/07/15 11:19:50;;;;;;;5.13;0.90;;;20.30;73.70;;;;;;5051083;28;20135;-80
2022/07/15 11:22:18;;;;;;;3.40;1.20;;;20.40;75.50;;;;;;5052531;28;20029;-80
2022/07/15 11:24:44;;;;;;;3.40;1.10;;;20.40;74.80;;;;;;5052461;28;20503;-80
2022/07/15 11:27:10;;;;;;;4.93;1.17;;;20.40;74.30;;;;;;5052482;28;20535;-80
2022/07/15 11:30:03;;;;;;;4.63;1.10;;;20.50;73.30;;;;;;5052233;28;20037;-80
2022/07/15 11:32:31;;;;;;;5.35;1.38;;;20.50;73.40;;;;;;5048983;28;20045;-80
2022/07/15 11:34:59;;;;;;;7.55;1.25;;;20.60;74.80;;;;;;5052427;28;20044;-80
2022/07/15 11:37:27;;;;;;;4.80;1.47;;;20.60;75.00;;;;;;5034347;28;20074;-80
2022/07/15 11:40:11;;;;;;;3.35;1.30;;;20.60;74.80;;;;;;5052319;28;20581;-80
2022/07/15 11:45:34;;;;;;;5.50;1.40;;;20.60;73.50;;;;;;5052392;28;20277;-80
2022/07/15 11:48:00;;;;;;;5.93;0.93;;;20.60;73.30;;;;;;5033893;28;20041;-81
2022/07/15 11:50:26;;;;;;;3.47;0.90;;;20.60;73.20;;;;;;5052156;28;20060;-80
2022/07/15 11:53:00;;;;;;;2.88;0.90;;;20.60;72.80;;;;;;5052142;28;20036;-80
2022/07/15 11:55:26;;;;;;;3.17;1.08;;;20.60;73.20;;;;;;5052093;28;20426;-80
2022/07/15 11:57:52;;;;;;;3.20;1.10;;;20.60;73.30;;;;;;5051750;28;20033;-80
2022/07/15 12:00:29;;;;;;;4.00;1.30;;;20.60;73.10;;;;;;5065559;23;20068;-70
2022/07/15 12:03:08;;;;;;;5.68;1.55;;;20.70;73.60;;;;;;5051962;28;20257;-69
2022/07/15 12:05:34;;;;;;;4.88;2.03;;;20.70;72.50;;;;;;5052047;28;20025;-69
2022/07/15 12:08:00;;;;;;;4.30;1.60;;;20.70;72.40;;;;;;5052345;28;20083;-69
2022/07/15 12:10:34;;;;;;;4.45;2.20;;;20.70;72.20;;;;;;5071490;28;20507;-69
2022/07/15 12:13:01;;;;;;;3.65;1.27;;;20.70;72.90;;;;;;5071940;28;20055;-69
2022/07/15 12:15:29;;;;;;;5.63;1.80;;;20.80;72.30;;;;;;5071796;28;20103;-69
2022/07/15 12:17:55;;;;;;;5.25;2.00;;;20.80;71.50;;;;;;5071941;28;20033;-69
2022/07/15 12:20:22;;;;;;;2.40;0.82;;;20.80;71.10;;;;;;5071405;28;20032;-69
2022/07/15 12:23:05;;;;;;;2.60;1.30;;;20.90;71.30;;;;;;5071524;28;20037;-69
2022/07/15 12:25:31;;;;;;;3.28;0.90;;;20.90;72.10;;;;;;5071723;28;20129;-69
2022/07/15 12:27:57;;;;;;;5.05;1.10;;;20.90;71.60;;;;;;5071233;28;20029;-69
2022/07/15 12:30:35;;;;;;;3.88;1.98;;;20.90;71.90;;;;;;5070893;28;20036;-70
2022/07/15 12:33:22;;;;;;;2.17;0.88;;;21.00;71.80;;;;;;5071867;28;20024;-69
2022/07/15 12:35:48;;;;;;;4.47;1.20;;;21.10;71.70;;;;;;5071220;28;20028;-69
2022/07/15 12:38:27;;;;;;;4.07;1.40;;;21.10;70.70;;;;;;5071319;28;20066;-69
2022/07/15 12:40:53;;;;;;;2.80;1.20;;;21.10;70.40;;;;;;5069941;28;20366;-69
2022/07/15 12:43:19;;;;;;;3.45;1.00;;;21.10;70.90;;;;;;5071272;28;20036;-69
2022/07/15 12:45:45;;;;;;;5.45;1.95;;;21.20;71.30;;;;;;5070881;28;20040;-70
2022/07/15 12:48:13;;;;;;;2.80;1.23;;;21.40;70.90;;;;;;5071189;28;20033;-69
2022/07/15 12:50:51;;;;;;;3.63;1.00;;;21.60;70.60;;;;;;5069928;28;20033;-69
2022/07/15 12:53:19;;;;;;;4.90;1.25;;;21.80;69.70;;;;;;5071082;28;20082;-69
2022/07/15 12:55:47;;;;;;;3.20;0.90;;;22.00;68.70;;;;;;5070940;28;20047;-69
2022/07/15 12:58:16;;;;;;;4.35;1.60;;;22.10;68.30;;;;;;5070969;28;20270;-69
2022/07/15 13:00:43;;;;;;;3.83;1.42;;;22.10;68.30;;;;;;5070679;28;20032;-69
2022/07/15 13:03:18;;;;;;;3.05;1.15;;;22.10;68.20;;;;;;5069846;28;20029;-69